Virgin, Utah
Current Conditions -  °F | °C
As of 1:35 AM on Friday 19 Dec 2014 (Local Time) from KAZC Reporting Station
Clear Clear  
Wind Chill: 23°   Ceiling: Unl
Heat Index: 28°   Visibility: 10mi
Dew Point: 28°   Wind: 5mph
Humidity: 98%   Direction: 140°SE
Pressure: 30.23"   Gusts: NA
Location:  37.21°N, 113.19°W
Report Text: KAZC 190835Z AUTO 14004KT 10SM CLR M02/M02 A3023 RMK AO2 T10201023
Loading
Personal Weather Stations






























Interactive Weather Map New forecast layout! Learn more

10-Day Weather Forecast

Advertisements
Track Severe Weather on mobile